createdAt,value
2022-08-19T00:00:33.154Z,90.32
2022-08-19T00:01:39.071Z,90.26
2022-08-19T00:02:50.139Z,90.21
2022-08-19T00:03:53.680Z,90.37
2022-08-19T00:04:56.302Z,90.30
2022-08-19T00:06:00.360Z,90.26
2022-08-19T00:07:04.308Z,90.45
2022-08-19T00:08:06.492Z,90.27
2022-08-19T00:09:12.689Z,90.49
2022-08-19T00:10:16.689Z,90.57
2022-08-19T00:11:25.578Z,90.75
2022-08-19T00:12:28.646Z,90.75
2022-08-19T00:13:31.826Z,90.82
2022-08-19T00:14:34.105Z,91.02
2022-08-19T00:15:39.028Z,91.01
2022-08-19T00:16:42.797Z,90.98
2022-08-19T00:17:46.945Z,90.90
2022-08-19T00:18:49.483Z,91.02
2022-08-19T00:19:53.485Z,91.09
2022-08-19T00:20:55.742Z,90.94
2022-08-19T00:21:59.070Z,91.23
2022-08-19T00:23:01.214Z,91.15
2022-08-19T00:24:05.076Z,91.25
2022-08-19T00:25:08.139Z,91.23
2022-08-19T00:26:13.125Z,91.19
2022-08-19T00:27:26.111Z,91.29
2022-08-19T00:28:30.029Z,91.23
2022-08-19T00:29:32.726Z,91.03
2022-08-19T00:30:36.050Z,91.19
2022-08-19T00:31:40.091Z,91.12
2022-08-19T00:32:43.256Z,90.95
2022-08-19T00:33:45.415Z,90.94
2022-08-19T00:34:48.594Z,90.78
2022-08-19T00:35:56.095Z,91.08
2022-08-19T00:37:00.632Z,91.14
2022-08-19T00:38:02.853Z,90.93
2022-08-19T00:39:06.243Z,91.12
2022-08-19T00:40:08.940Z,91.04
2022-08-19T00:41:15.564Z,91.14
2022-08-19T00:42:18.580Z,91.20
2022-08-19T00:43:24.123Z,91.24
2022-08-19T00:44:28.801Z,91.33
2022-08-19T00:45:33.300Z,91.25
2022-08-19T00:46:43.169Z,91.26
2022-08-19T00:47:46.793Z,91.37
2022-08-19T00:48:48.966Z,91.23
2022-08-19T00:49:54.643Z,91.39
2022-08-19T00:50:57.809Z,91.25
2022-08-19T00:52:06.572Z,91.27
2022-08-19T00:53:09.061Z,91.07
2022-08-19T00:54:15.045Z,91.25
2022-08-19T00:55:21.778Z,91.34
2022-08-19T00:56:25.426Z,90.99
2022-08-19T00:57:32.848Z,91.38
2022-08-19T00:58:36.565Z,91.31
2022-08-19T00:59:56.312Z,91.45
2022-08-19T01:01:06.598Z,91.47
2022-08-19T01:02:10.366Z,91.44
2022-08-19T01:03:19.339Z,91.30
2022-08-19T01:04:21.516Z,91.46
2022-08-19T01:05:29.699Z,91.50
2022-08-19T01:06:33.557Z,91.43
2022-08-19T01:07:38.036Z,91.69
2022-08-19T01:08:40.557Z,91.51
2022-08-19T01:09:43.699Z,91.73
2022-08-19T01:10:49.559Z,91.74
2022-08-19T01:11:53.968Z,91.69
2022-08-19T01:12:57.145Z,91.72
2022-08-19T01:14:01.457Z,91.74
2022-08-19T01:15:04.535Z,92.04
2022-08-19T01:16:10.804Z,92.03
2022-08-19T01:17:16.167Z,92.14
2022-08-19T01:18:21.266Z,92.14
2022-08-19T01:19:29.173Z,92.05
2022-08-19T01:20:32.500Z,92.42
2022-08-19T01:21:45.639Z,92.38
2022-08-19T01:22:52.662Z,92.45
2022-08-19T01:23:55.227Z,92.46
2022-08-19T01:24:59.466Z,92.58
2022-08-19T01:26:02.010Z,92.45
2022-08-19T01:27:06.985Z,92.74
2022-08-19T01:28:18.809Z,92.72
2022-08-19T01:29:40.961Z,92.75
2022-08-19T01:30:44.620Z,92.62
2022-08-19T01:31:54.452Z,92.58
2022-08-19T01:32:57.542Z,92.83
2022-08-19T01:34:01.021Z,92.90
2022-08-19T01:35:05.347Z,92.77
2022-08-19T01:36:11.687Z,92.81
2022-08-19T01:37:14.915Z,93.09
2022-08-19T01:38:32.572Z,93.06
2022-08-19T01:39:35.394Z,92.97
2022-08-19T01:40:41.377Z,93.10
2022-08-19T01:41:43.727Z,93.16
2022-08-19T01:42:47.097Z,93.29
2022-08-19T01:44:17.412Z,93.32
2022-08-19T01:45:13.775Z,93.45
2022-08-19T01:46:15.879Z,93.62
2022-08-19T01:47:19.425Z,93.68
2022-08-19T01:48:21.799Z,93.69
2022-08-19T01:49:27.637Z,93.96
2022-08-19T01:50:30.985Z,93.79
2022-08-19T01:51:39.956Z,93.90
2022-08-19T01:52:44.473Z,93.87
2022-08-19T01:53:51.046Z,93.95
2022-08-19T01:54:53.219Z,94.31
2022-08-19T01:55:56.493Z,94.04
2022-08-19T01:57:04.161Z,94.08
2022-08-19T01:58:09.962Z,94.00
2022-08-19T01:59:16.170Z,94.32
2022-08-19T02:00:21.978Z,94.44
2022-08-19T02:01:25.235Z,94.48
2022-08-19T02:02:34.030Z,94.40
2022-08-19T02:03:37.212Z,94.46
2022-08-19T02:04:39.889Z,94.47
2022-08-19T02:05:44.085Z,94.80
2022-08-19T02:06:46.216Z,94.75
2022-08-19T02:07:49.880Z,94.73
2022-08-19T02:08:53.441Z,94.98
2022-08-19T02:10:00.784Z,94.96
2022-08-19T02:11:05.781Z,95.51
2022-08-19T02:12:09.882Z,95.13
2022-08-19T02:13:12.765Z,95.23
2022-08-19T02:14:16.253Z,95.43
2022-08-19T02:15:20.394Z,95.53
2022-08-19T02:16:24.526Z,95.66
2022-08-19T02:17:26.669Z,95.78
2022-08-19T02:18:29.938Z,95.88
2022-08-19T02:19:33.584Z,96.04
2022-08-19T02:20:37.688Z,95.88
2022-08-19T02:21:40.041Z,96.15
2022-08-19T02:22:43.699Z,95.95
2022-08-19T02:23:46.733Z,96.03
2022-08-19T02:24:51.226Z,96.13
2022-08-19T02:25:53.449Z,96.14
2022-08-19T02:26:56.608Z,96.15
2022-08-19T02:27:58.830Z,96.22
2022-08-19T02:29:02.361Z,96.11
2022-08-19T02:30:06.654Z,96.31
2022-08-19T02:31:12.551Z,96.09
2022-08-19T02:32:14.791Z,96.07
2022-08-19T02:33:18.647Z,96.08
2022-08-19T02:34:21.085Z,96.25
2022-08-19T02:35:24.308Z,96.20
2022-08-19T02:36:26.964Z,96.29
2022-08-19T02:37:47.326Z,96.25
2022-08-19T02:38:54.880Z,96.25
2022-08-19T02:39:59.462Z,96.35
2022-08-19T02:41:04.810Z,96.39
2022-08-19T02:42:07.225Z,96.45
2022-08-19T02:43:11.129Z,96.77
2022-08-19T02:44:30.284Z,96.72
2022-08-19T02:45:34.352Z,96.73
2022-08-19T02:46:37.636Z,96.57
2022-08-19T02:47:39.789Z,96.59
2022-08-19T02:48:43.020Z,96.65
2022-08-19T02:49:45.327Z,96.86
2022-08-19T02:50:53.208Z,96.98
2022-08-19T02:51:55.914Z,97.01
2022-08-19T02:52:59.106Z,97.02
2022-08-19T02:54:01.505Z,97.15
2022-08-19T02:55:07.452Z,97.00
2022-08-19T02:56:09.621Z,97.20
2022-08-19T02:57:12.998Z,97.10
2022-08-19T02:58:16.098Z,97.00
2022-08-19T02:59:21.122Z,97.14
2022-08-19T03:00:25.500Z,97.27
2022-08-19T03:01:32.603Z,97.27
2022-08-19T03:02:34.893Z,97.44
2022-08-19T03:03:38.338Z,97.50
2022-08-19T03:04:40.565Z,97.59
2022-08-19T03:05:48.229Z,97.60
2022-08-19T03:07:02.551Z,97.57
2022-08-19T03:08:15.088Z,98.03
2022-08-19T03:09:18.792Z,97.71
2022-08-19T03:10:23.950Z,98.04
2022-08-19T03:11:30.296Z,97.88
2022-08-19T03:12:32.647Z,97.95
2022-08-19T03:13:36.899Z,97.88
2022-08-19T03:14:39.216Z,97.94
2022-08-19T03:15:43.933Z,97.65
2022-08-19T03:16:48.410Z,98.03
2022-08-19T03:17:51.761Z,97.76
2022-08-19T03:18:55.117Z,97.96
2022-08-19T03:19:58.474Z,97.88
2022-08-19T03:21:01.392Z,97.97
2022-08-19T03:22:05.162Z,98.01
2022-08-19T03:23:07.395Z,98.06
2022-08-19T03:24:10.910Z,97.99
2022-08-19T03:25:13.165Z,98.31
2022-08-19T03:26:18.372Z,98.31
2022-08-19T03:27:20.616Z,98.19
2022-08-19T03:28:23.803Z,98.18
2022-08-19T03:29:30.166Z,98.50
2022-08-19T03:30:34.223Z,98.42
2022-08-19T03:31:45.077Z,98.57
2022-08-19T03:32:57.127Z,98.49
2022-08-19T03:33:59.640Z,98.65
2022-08-19T03:35:03.476Z,98.53
2022-08-19T03:36:10.420Z,98.61
2022-08-19T03:37:13.416Z,98.63
2022-08-19T03:38:16.705Z,98.88
2022-08-19T03:39:18.914Z,98.89
2022-08-19T03:40:22.247Z,99.06
2022-08-19T03:41:44.646Z,98.89
2022-08-19T03:42:49.635Z,99.13
2022-08-19T03:43:53.916Z,98.96
2022-08-19T03:44:57.178Z,99.20
2022-08-19T03:46:05.144Z,99.12
2022-08-19T03:47:08.431Z,99.12
2022-08-19T03:48:10.709Z,99.47
2022-08-19T03:49:14.208Z,99.65
2022-08-19T03:50:16.995Z,99.68
2022-08-19T03:51:30.890Z,99.80
2022-08-19T03:52:34.454Z,99.84
2022-08-19T03:53:37.046Z,99.94
2022-08-19T03:54:40.630Z,99.67
2022-08-19T03:55:42.822Z,99.98
2022-08-19T03:56:49.559Z,99.79
2022-08-19T03:57:52.834Z,100.00
2022-08-19T03:58:58.908Z,100.00
2022-08-19T04:00:13.031Z,100.00
2022-08-19T04:01:19.197Z,100.00
2022-08-19T04:02:22.969Z,100.00
2022-08-19T04:03:25.905Z,100.00
2022-08-19T04:04:29.825Z,100.00
2022-08-19T04:05:34.136Z,100.00
2022-08-19T04:06:39.709Z,100.00
2022-08-19T04:07:42.317Z,100.00
2022-08-19T04:08:47.549Z,100.00
2022-08-19T04:09:52.964Z,100.00
2022-08-19T04:10:55.181Z,100.00
2022-08-19T04:12:00.165Z,100.00
2022-08-19T04:13:02.468Z,100.00
2022-08-19T04:14:05.736Z,100.00
2022-08-19T04:15:09.906Z,100.00
2022-08-19T04:16:12.458Z,100.00
2022-08-19T04:17:15.686Z,100.00
2022-08-19T04:18:18.398Z,100.00
2022-08-19T04:19:22.227Z,100.00
2022-08-19T04:20:24.435Z,100.00
2022-08-19T04:21:29.005Z,100.00
2022-08-19T04:22:31.261Z,100.00
2022-08-19T04:23:34.780Z,100.00
2022-08-19T04:24:37.322Z,100.00
2022-08-19T04:25:41.826Z,100.00
2022-08-19T04:26:44.629Z,100.00
2022-08-19T04:27:49.553Z,100.00
2022-08-19T04:28:52.599Z,100.00
2022-08-19T04:29:56.164Z,100.00
2022-08-19T04:30:59.074Z,100.00
2022-08-19T04:32:09.279Z,100.00
2022-08-19T04:33:12.163Z,100.00
2022-08-19T04:34:18.895Z,100.00
2022-08-19T04:35:24.801Z,100.00
2022-08-19T04:36:29.971Z,100.00
2022-08-19T04:37:35.443Z,100.00
2022-08-19T04:38:39.359Z,100.00
2022-08-19T04:40:02.368Z,100.00
2022-08-19T04:41:23.904Z,100.00
2022-08-19T04:42:41.076Z,100.00
2022-08-19T04:43:49.809Z,100.00
2022-08-19T04:44:52.003Z,100.00
2022-08-19T04:45:56.469Z,100.00
2022-08-19T04:47:11.195Z,100.00
2022-08-19T04:48:26.601Z,100.00
2022-08-19T04:49:31.062Z,100.00
2022-08-19T04:50:33.971Z,100.00
2022-08-19T04:51:42.103Z,100.00
2022-08-19T04:52:44.300Z,100.00
2022-08-19T04:53:47.562Z,100.00
2022-08-19T04:54:49.753Z,100.00
2022-08-19T04:55:53.576Z,100.00
2022-08-19T04:56:55.726Z,100.00
2022-08-19T04:57:58.927Z,100.00
2022-08-19T04:59:04.427Z,100.00
2022-08-19T05:00:09.398Z,100.00
2022-08-19T05:01:14.328Z,100.00
2022-08-19T05:02:17.620Z,100.00
2022-08-19T05:03:20.351Z,100.00
2022-08-19T05:04:23.585Z,100.00
2022-08-19T05:05:25.732Z,100.00
2022-08-19T05:06:34.684Z,100.00
2022-08-19T05:07:37.718Z,100.00
2022-08-19T05:08:44.141Z,100.00
2022-08-19T05:09:58.170Z,100.00
2022-08-19T05:11:01.285Z,100.00
2022-08-19T05:12:05.095Z,100.00
2022-08-19T05:13:07.356Z,100.00
2022-08-19T05:14:13.421Z,100.00
2022-08-19T05:15:15.612Z,100.00
2022-08-19T05:16:21.560Z,100.00
2022-08-19T05:17:27.571Z,100.00
2022-08-19T05:18:49.921Z,100.00
2022-08-19T05:20:10.725Z,100.00
2022-08-19T05:21:32.758Z,100.00
2022-08-19T05:22:36.688Z,100.00
2022-08-19T05:23:38.990Z,100.00
2022-08-19T05:25:02.446Z,100.00
2022-08-19T05:26:05.755Z,100.00
2022-08-19T05:27:08.000Z,100.00
2022-08-19T05:28:11.259Z,100.00
2022-08-19T05:29:16.776Z,100.00
2022-08-19T05:30:42.184Z,100.00
2022-08-19T05:31:44.090Z,100.00
2022-08-19T05:32:47.295Z,100.00
2022-08-19T05:33:49.828Z,100.00
2022-08-19T05:34:52.979Z,100.00
2022-08-19T05:35:55.287Z,100.00
2022-08-19T05:37:00.479Z,100.00
2022-08-19T05:38:02.604Z,100.00
2022-08-19T05:39:06.190Z,100.00
2022-08-19T05:40:10.011Z,100.00
2022-08-19T05:41:15.315Z,100.00
2022-08-19T05:42:17.548Z,100.00
2022-08-19T05:43:20.847Z,100.00
2022-08-19T05:44:25.845Z,100.00
2022-08-19T05:45:29.039Z,100.00
2022-08-19T05:46:31.228Z,100.00
2022-08-19T05:47:34.534Z,100.00
2022-08-19T05:48:37.192Z,100.00
2022-08-19T05:49:40.465Z,100.00
2022-08-19T05:50:43.290Z,100.00
2022-08-19T05:51:46.651Z,100.00
2022-08-19T05:52:50.194Z,100.00
2022-08-19T05:53:53.915Z,100.00
2022-08-19T05:54:57.260Z,100.00
2022-08-19T05:55:59.481Z,100.00
2022-08-19T05:57:03.902Z,100.00
2022-08-19T05:58:08.515Z,100.00
2022-08-19T05:59:13.013Z,100.00
2022-08-19T06:00:22.664Z,100.00
2022-08-19T06:01:27.789Z,100.00
2022-08-19T06:02:32.430Z,100.00
2022-08-19T06:03:35.393Z,100.00
2022-08-19T06:04:38.751Z,100.00
2022-08-19T06:05:49.724Z,100.00
2022-08-19T06:06:57.293Z,100.00
2022-08-19T06:07:59.816Z,100.00
2022-08-19T06:09:03.557Z,100.00
2022-08-19T06:10:09.513Z,100.00
2022-08-19T06:11:17.819Z,100.00
2022-08-19T06:12:21.127Z,100.00
2022-08-19T06:13:24.830Z,100.00
2022-08-19T06:14:30.635Z,100.00
2022-08-19T06:15:36.995Z,100.00
2022-08-19T06:16:42.918Z,100.00
2022-08-19T06:17:45.498Z,100.00
2022-08-19T06:18:49.381Z,100.00
2022-08-19T06:19:51.655Z,100.00
2022-08-19T06:20:56.071Z,100.00
2022-08-19T06:22:01.129Z,100.00
2022-08-19T06:23:04.787Z,100.00
2022-08-19T06:24:10.241Z,100.00
2022-08-19T06:25:13.858Z,100.00
2022-08-19T06:26:17.843Z,100.00
2022-08-19T06:27:21.231Z,100.00
2022-08-19T06:28:24.685Z,100.00
2022-08-19T06:29:29.037Z,100.00
2022-08-19T06:30:31.250Z,100.00
2022-08-19T06:31:37.852Z,100.00
2022-08-19T06:32:42.917Z,100.00
2022-08-19T06:33:47.462Z,100.00
2022-08-19T06:34:53.400Z,100.00
2022-08-19T06:35:55.556Z,100.00
2022-08-19T06:37:02.083Z,100.00
2022-08-19T06:38:06.008Z,100.00
2022-08-19T06:39:10.963Z,100.00
2022-08-19T06:40:14.621Z,100.00
2022-08-19T06:41:16.825Z,100.00
2022-08-19T06:42:21.651Z,100.00
2022-08-19T06:43:29.106Z,100.00
2022-08-19T06:44:35.423Z,100.00
2022-08-19T06:45:45.684Z,100.00
2022-08-19T06:46:54.574Z,100.00
2022-08-19T06:47:58.387Z,100.00
2022-08-19T06:49:01.142Z,100.00
2022-08-19T06:50:05.757Z,100.00
2022-08-19T06:51:08.728Z,100.00
2022-08-19T06:52:14.221Z,100.00
2022-08-19T06:53:16.388Z,100.00
2022-08-19T06:54:20.847Z,100.00
2022-08-19T06:55:22.997Z,100.00
2022-08-19T06:56:32.070Z,100.00
2022-08-19T06:57:35.070Z,100.00
2022-08-19T06:58:39.194Z,100.00
2022-08-19T06:59:41.820Z,100.00
2022-08-19T07:00:44.948Z,100.00
2022-08-19T07:01:50.653Z,100.00
2022-08-19T07:03:00.109Z,100.00
2022-08-19T07:04:04.890Z,100.00
2022-08-19T07:05:09.237Z,100.00
2022-08-19T07:06:32.585Z,100.00
2022-08-19T07:07:39.628Z,100.00
2022-08-19T07:08:47.481Z,100.00
2022-08-19T07:09:59.085Z,100.00
2022-08-19T07:11:03.289Z,100.00
2022-08-19T07:12:16.268Z,100.00
2022-08-19T07:13:20.243Z,100.00
2022-08-19T07:14:27.292Z,100.00
2022-08-19T07:15:29.577Z,100.00
2022-08-19T07:16:32.866Z,100.00
2022-08-19T07:17:36.516Z,100.00
2022-08-19T07:18:45.337Z,100.00
2022-08-19T07:19:50.069Z,100.00
2022-08-19T07:20:53.573Z,100.00
2022-08-19T07:21:57.388Z,100.00
2022-08-19T07:22:59.565Z,99.93
2022-08-19T07:24:05.354Z,99.80
2022-08-19T07:25:10.304Z,99.73
2022-08-19T07:26:16.735Z,99.75
2022-08-19T07:27:24.512Z,99.60
2022-08-19T07:28:28.363Z,99.59
2022-08-19T07:29:34.362Z,99.46
2022-08-19T07:30:41.744Z,99.35
2022-08-19T07:31:46.095Z,99.04
2022-08-19T07:32:50.592Z,98.78
2022-08-19T07:33:56.308Z,98.67
2022-08-19T07:35:01.396Z,98.32
2022-08-19T07:36:05.268Z,97.91
2022-08-19T07:37:08.934Z,98.00
2022-08-19T07:38:11.341Z,97.82
2022-08-19T07:39:19.813Z,97.37
2022-08-19T07:40:22.338Z,97.56
2022-08-19T07:41:29.444Z,97.13
2022-08-19T07:42:31.878Z,97.08
2022-08-19T07:43:35.367Z,96.83
2022-08-19T07:45:41.540Z,96.46
2022-08-19T07:46:48.245Z,96.49
2022-08-19T07:47:53.900Z,96.36
2022-08-19T07:48:57.402Z,96.43
2022-08-19T07:50:00.551Z,96.43
2022-08-19T07:51:07.787Z,96.33
2022-08-19T07:52:11.776Z,96.25
2022-08-19T07:53:14.206Z,96.20
2022-08-19T07:54:17.583Z,96.17
2022-08-19T07:55:41.202Z,95.92
2022-08-19T07:56:46.186Z,95.70
2022-08-19T07:57:48.321Z,95.62
2022-08-19T07:58:53.780Z,95.36
2022-08-19T07:59:55.901Z,95.45
2022-08-19T08:00:59.024Z,95.16
2022-08-19T08:02:03.329Z,95.36
2022-08-19T08:03:05.649Z,95.29
2022-08-19T08:04:27.943Z,95.13
2022-08-19T08:05:48.717Z,94.97
2022-08-19T08:07:09.428Z,94.90
2022-08-19T08:08:44.116Z,94.90
2022-08-19T08:09:50.567Z,94.77
2022-08-19T08:10:53.067Z,94.66
2022-08-19T08:12:04.991Z,94.51
2022-08-19T08:13:10.102Z,94.68
2022-08-19T08:14:29.399Z,94.68
2022-08-19T08:15:42.222Z,94.47
2022-08-19T08:16:47.347Z,94.62
2022-08-19T08:17:51.569Z,94.68
2022-08-19T08:18:54.056Z,94.86
2022-08-19T08:19:58.646Z,94.85
2022-08-19T08:21:01.027Z,94.78
2022-08-19T08:22:06.886Z,94.79
2022-08-19T08:23:25.789Z,94.89
2022-08-19T08:24:31.733Z,94.88
2022-08-19T08:25:36.374Z,95.03
2022-08-19T08:26:39.566Z,94.81
2022-08-19T08:27:53.056Z,94.87
2022-08-19T08:28:57.591Z,94.55
2022-08-19T08:29:59.710Z,94.77
2022-08-19T08:31:09.651Z,94.40
2022-08-19T08:32:14.135Z,94.83
2022-08-19T08:33:34.185Z,94.81
2022-08-19T08:34:38.328Z,94.66
2022-08-19T08:35:43.213Z,94.70
2022-08-19T08:36:48.131Z,94.45
2022-08-19T08:37:53.590Z,94.38
2022-08-19T08:40:03.305Z,94.57
2022-08-19T08:41:11.574Z,93.99
2022-08-19T08:42:20.807Z,93.98
2022-08-19T08:43:32.458Z,93.80
2022-08-19T08:44:45.023Z,93.70
2022-08-19T08:45:53.455Z,93.53
2022-08-19T08:47:02.086Z,93.45
2022-08-19T08:48:21.879Z,93.29
2022-08-19T08:49:35.654Z,92.94
2022-08-19T08:50:44.536Z,92.89
2022-08-19T08:51:59.557Z,93.12
2022-08-19T08:53:06.223Z,93.10
2022-08-19T08:54:13.011Z,92.91
2022-08-19T08:55:17.795Z,93.16
2022-08-19T08:56:23.567Z,93.12
2022-08-19T08:57:36.953Z,92.57
2022-08-19T08:58:54.799Z,92.77
2022-08-19T08:59:58.937Z,92.82
2022-08-19T09:01:02.123Z,92.59
2022-08-19T09:02:05.432Z,92.57
2022-08-19T09:03:20.220Z,92.74
2022-08-19T09:04:26.553Z,92.63
2022-08-19T09:05:48.344Z,92.39
2022-08-19T09:06:59.264Z,92.26
2022-08-19T09:08:06.040Z,92.04
2022-08-19T09:09:18.153Z,91.59
2022-08-19T09:10:29.377Z,91.84
2022-08-19T09:11:46.461Z,91.67
2022-08-19T09:12:59.065Z,91.45
2022-08-19T09:14:34.963Z,91.51
2022-08-19T09:15:40.739Z,91.43
2022-08-19T09:16:42.844Z,91.50
2022-08-19T09:17:50.168Z,91.37
2022-08-19T09:18:55.781Z,91.22
2022-08-19T09:20:01.919Z,91.05
2022-08-19T09:21:04.178Z,91.20
2022-08-19T09:22:08.694Z,91.02
2022-08-19T09:23:13.842Z,91.01
2022-08-19T09:24:15.921Z,90.98
2022-08-19T09:25:26.787Z,90.69
2022-08-19T09:26:48.304Z,90.57
2022-08-19T09:28:01.174Z,90.58
2022-08-19T09:29:06.503Z,90.55
2022-08-19T09:30:11.144Z,90.61
2022-08-19T09:31:15.397Z,90.96
2022-08-19T09:32:26.697Z,91.03
2022-08-19T09:33:30.287Z,91.14
2022-08-19T09:34:33.269Z,91.21
2022-08-19T09:35:49.447Z,91.51
2022-08-19T09:36:54.556Z,91.69
2022-08-19T09:37:59.471Z,91.45
2022-08-19T09:39:03.029Z,91.52
2022-08-19T09:40:07.307Z,91.72
2022-08-19T09:41:15.889Z,91.88
2022-08-19T09:42:30.430Z,92.10
2022-08-19T09:43:44.491Z,92.22
2022-08-19T09:44:47.806Z,92.17
2022-08-19T09:45:50.896Z,92.39
2022-08-19T09:46:53.025Z,92.20
2022-08-19T09:47:56.520Z,92.26
2022-08-19T09:49:06.169Z,92.19
2022-08-19T09:50:12.500Z,92.43
2022-08-19T09:51:22.250Z,92.28
2022-08-19T09:52:25.531Z,91.99
2022-08-19T09:53:37.590Z,92.23
2022-08-19T09:54:41.307Z,92.15
2022-08-19T09:55:46.394Z,92.23
2022-08-19T09:56:52.583Z,92.19
2022-08-19T09:57:55.266Z,92.24
2022-08-19T09:59:00.746Z,92.25
2022-08-19T10:00:04.651Z,92.30
2022-08-19T10:01:11.442Z,92.39
2022-08-19T10:02:14.199Z,92.39
2022-08-19T10:03:29.943Z,92.35
2022-08-19T10:04:54.947Z,92.75
2022-08-19T10:05:59.768Z,92.86
2022-08-19T10:07:02.574Z,92.94
2022-08-19T10:08:13.111Z,93.01
2022-08-19T10:09:26.438Z,93.32
2022-08-19T10:10:38.317Z,93.35
2022-08-19T10:11:54.621Z,93.33
2022-08-19T10:12:57.293Z,93.59
2022-08-19T10:14:00.828Z,93.21
2022-08-19T10:15:03.362Z,93.73
2022-08-19T10:16:10.103Z,93.71
2022-08-19T10:17:19.300Z,93.70
2022-08-19T10:18:26.460Z,93.66
2022-08-19T10:19:33.279Z,93.71
2022-08-19T10:20:36.542Z,93.59
2022-08-19T10:21:41.379Z,93.27
2022-08-19T10:22:44.516Z,93.33
2022-08-19T10:23:50.155Z,93.17
2022-08-19T10:24:57.474Z,93.28
2022-08-19T10:26:01.511Z,93.27
2022-08-19T10:27:06.850Z,93.90
2022-08-19T10:28:13.020Z,93.62
2022-08-19T10:29:32.134Z,93.83
2022-08-19T10:30:37.870Z,93.73
2022-08-19T10:32:00.569Z,93.97
2022-08-19T10:33:08.295Z,94.08
2022-08-19T10:34:17.590Z,94.14
2022-08-19T10:35:30.461Z,94.26
2022-08-19T10:36:36.213Z,94.27
2022-08-19T10:38:00.276Z,94.72
2022-08-19T10:39:09.826Z,94.69
2022-08-19T10:40:15.019Z,94.49
2022-08-19T10:41:19.531Z,94.74
2022-08-19T10:42:22.664Z,95.03
2022-08-19T10:43:25.921Z,95.00
2022-08-19T10:44:32.532Z,94.88
2022-08-19T10:45:36.102Z,95.02
2022-08-19T10:46:45.141Z,94.90
2022-08-19T10:47:51.542Z,94.95
2022-08-19T10:48:55.177Z,94.73
2022-08-19T10:50:15.781Z,94.52
2022-08-19T10:51:37.177Z,94.39
2022-08-19T10:52:53.250Z,94.17
2022-08-19T10:54:00.542Z,94.14
2022-08-19T10:55:22.034Z,94.26
2022-08-19T10:56:53.254Z,93.74
2022-08-19T10:58:03.634Z,93.67
2022-08-19T10:59:06.000Z,93.29
2022-08-19T11:00:10.371Z,93.20
2022-08-19T11:01:12.582Z,93.09
2022-08-19T11:02:15.872Z,92.78
2022-08-19T11:03:17.993Z,92.56
2022-08-19T11:04:21.824Z,92.20
2022-08-19T11:05:40.097Z,91.79
2022-08-19T11:06:44.627Z,91.25
2022-08-19T11:07:47.044Z,90.74
2022-08-19T11:08:50.260Z,90.63
2022-08-19T11:09:52.532Z,89.97
2022-08-19T11:11:01.739Z,89.97
2022-08-19T11:12:06.058Z,89.45
2022-08-19T11:13:09.277Z,89.23
2022-08-19T11:14:15.081Z,89.06
2022-08-19T11:15:17.332Z,88.87
2022-08-19T11:16:23.369Z,88.03
2022-08-19T11:17:25.602Z,87.51
2022-08-19T11:18:28.914Z,86.05
2022-08-19T11:19:32.092Z,84.62
2022-08-19T11:20:35.232Z,85.07
2022-08-19T11:21:41.782Z,85.08
2022-08-19T11:22:43.965Z,84.56
2022-08-19T11:23:48.755Z,84.95
2022-08-19T11:24:50.884Z,84.54
2022-08-19T11:25:54.185Z,84.32
2022-08-19T11:27:05.472Z,84.31
2022-08-19T11:28:08.996Z,84.14
2022-08-19T11:29:14.280Z,84.33
2022-08-19T11:30:17.653Z,84.52
2022-08-19T11:31:23.078Z,84.33
2022-08-19T11:32:28.397Z,83.97
2022-08-19T11:33:31.021Z,84.31
2022-08-19T11:34:34.096Z,83.92
2022-08-19T11:35:40.273Z,83.90
2022-08-19T11:36:45.108Z,83.95
2022-08-19T11:37:47.233Z,83.73
2022-08-19T11:38:51.468Z,83.59
2022-08-19T11:39:54.484Z,83.42
2022-08-19T11:40:58.796Z,83.48
2022-08-19T11:42:03.407Z,83.42
2022-08-19T11:43:07.154Z,83.03
2022-08-19T11:44:12.123Z,82.97
2022-08-19T11:45:15.141Z,83.09
2022-08-19T11:46:18.786Z,82.78
2022-08-19T11:47:20.976Z,82.50
2022-08-19T11:48:25.865Z,82.48
2022-08-19T11:49:27.997Z,82.39
2022-08-19T11:50:31.833Z,82.44
2022-08-19T11:51:34.746Z,82.18
2022-08-19T11:52:38.178Z,82.24
2022-08-19T11:53:40.870Z,82.05
2022-08-19T11:54:43.989Z,82.06
2022-08-19T11:55:46.326Z,81.95
2022-08-19T11:56:50.066Z,81.97
2022-08-19T11:57:53.420Z,82.02
2022-08-19T11:58:57.722Z,81.77
2022-08-19T12:00:02.574Z,81.26
2022-08-19T12:01:07.967Z,81.48
2022-08-19T12:02:11.746Z,80.97
2022-08-19T12:03:14.735Z,80.94
2022-08-19T12:04:17.966Z,81.03
2022-08-19T12:05:20.692Z,80.69
2022-08-19T12:06:29.344Z,80.76
2022-08-19T12:07:32.613Z,80.87
2022-08-19T12:08:35.812Z,80.63
2022-08-19T12:09:42.866Z,80.64
2022-08-19T12:10:46.441Z,80.81
2022-08-19T12:11:48.548Z,80.58
2022-08-19T12:12:56.402Z,80.70
2022-08-19T12:14:01.197Z,80.12
2022-08-19T12:15:06.544Z,80.18
2022-08-19T12:16:12.506Z,79.83
2022-08-19T12:17:15.604Z,79.85
2022-08-19T12:18:18.729Z,79.26
2022-08-19T12:19:22.140Z,79.38
2022-08-19T12:20:27.250Z,79.03
2022-08-19T12:21:29.552Z,78.68
2022-08-19T12:22:32.678Z,78.00
2022-08-19T12:23:34.925Z,77.49
2022-08-19T12:24:38.069Z,76.84
2022-08-19T12:25:49.399Z,77.02
2022-08-19T12:26:54.017Z,76.78
2022-08-19T12:27:57.422Z,76.47
2022-08-19T12:29:01.529Z,75.78
2022-08-19T12:30:07.101Z,75.97
2022-08-19T12:31:12.984Z,76.10
2022-08-19T12:32:15.804Z,75.75
2022-08-19T12:33:19.253Z,75.85
2022-08-19T12:34:21.605Z,75.71
2022-08-19T12:35:24.722Z,75.55
2022-08-19T12:36:27.050Z,75.42
2022-08-19T12:37:32.631Z,74.70
2022-08-19T12:38:36.711Z,74.62
2022-08-19T12:39:43.247Z,74.39
2022-08-19T12:40:47.366Z,74.64
2022-08-19T12:41:54.318Z,74.44
2022-08-19T12:42:57.295Z,74.13
2022-08-19T12:44:01.039Z,74.03
2022-08-19T12:45:06.563Z,73.36
2022-08-19T12:46:12.794Z,73.17
2022-08-19T12:47:17.160Z,72.81
2022-08-19T12:48:34.536Z,71.98
2022-08-19T12:49:53.186Z,72.22
2022-08-19T12:50:57.727Z,71.96
2022-08-19T12:52:01.324Z,71.68
2022-08-19T12:53:03.469Z,71.42
2022-08-19T12:54:07.525Z,71.18
2022-08-19T12:55:11.603Z,71.41
2022-08-19T12:56:15.721Z,71.36
2022-08-19T12:57:18.929Z,72.11
2022-08-19T12:58:24.251Z,72.25
2022-08-19T12:59:30.458Z,72.04
2022-08-19T13:00:34.058Z,72.02
2022-08-19T13:01:37.231Z,72.21
2022-08-19T13:02:40.286Z,72.27
2022-08-19T13:03:44.153Z,72.54
2022-08-19T13:04:46.460Z,72.28
2022-08-19T13:05:51.396Z,72.54
2022-08-19T13:06:53.501Z,72.97
2022-08-19T13:08:00.596Z,72.70
2022-08-19T13:09:02.902Z,72.78
2022-08-19T13:10:07.200Z,72.96
2022-08-19T13:11:13.269Z,72.85
2022-08-19T13:12:15.365Z,73.17
2022-08-19T13:13:19.030Z,72.65
2022-08-19T13:14:22.222Z,73.07
2022-08-19T13:15:25.464Z,73.35
2022-08-19T13:16:30.205Z,73.52
2022-08-19T13:17:34.464Z,73.79
2022-08-19T13:18:37.728Z,73.63
2022-08-19T13:19:41.062Z,73.53
2022-08-19T13:20:52.417Z,73.42
2022-08-19T13:22:00.045Z,73.10
2022-08-19T13:23:03.567Z,72.89
2022-08-19T13:24:07.217Z,72.88
2022-08-19T13:25:10.323Z,73.23
2022-08-19T13:26:14.552Z,73.06
2022-08-19T13:27:17.717Z,72.98
2022-08-19T13:28:19.863Z,72.75
2022-08-19T13:29:43.259Z,72.31
2022-08-19T13:31:11.727Z,73.06
2022-08-19T13:32:33.669Z,72.72
2022-08-19T13:33:38.651Z,72.49
2022-08-19T13:34:40.736Z,72.68
2022-08-19T13:35:47.735Z,72.48
2022-08-19T13:36:49.935Z,72.67
2022-08-19T13:37:53.390Z,72.75
2022-08-19T13:38:55.757Z,73.19
2022-08-19T13:40:00.079Z,73.03
2022-08-19T13:41:10.963Z,73.13
2022-08-19T13:42:14.945Z,73.49
2022-08-19T13:43:23.279Z,73.55
2022-08-19T13:44:27.402Z,73.86
2022-08-19T13:45:30.973Z,73.67
2022-08-19T13:46:34.086Z,74.07
2022-08-19T13:47:40.086Z,73.90
2022-08-19T13:48:43.760Z,73.72
2022-08-19T13:49:45.965Z,73.82
2022-08-19T13:50:49.348Z,73.58
2022-08-19T13:51:51.510Z,73.81
2022-08-19T13:52:55.197Z,73.45
2022-08-19T13:53:58.351Z,73.83
2022-08-19T13:55:00.504Z,73.60
2022-08-19T13:56:08.096Z,74.17
2022-08-19T13:57:10.284Z,74.00
2022-08-19T13:58:14.406Z,74.45
2022-08-19T13:59:16.631Z,74.39
2022-08-19T14:00:22.011Z,74.71
2022-08-19T14:01:25.825Z,74.65
2022-08-19T14:02:29.044Z,74.90
2022-08-19T14:03:33.869Z,74.57